Viscount, Canada
Current Conditions -  °F | °C
As of 7:35 PM on Friday 19 Dec 2014 (Local Time) from CYXE Reporting Station
Moderate Fog Moderate Fog  
Wind Chill:   Ceiling: 200
Heat Index: 18°   Visibility: 0.5mi
Dew Point: 16°   Wind: 9mph
Humidity: 93%   Direction: 150°SSE
Pressure: 29.89"   Gusts: NA
Location:  51.95°N, 105.63°W
Report Text: CYXE 200135Z 15008KT 1/2SM R09/P6000FT/U FZFG VV002 M08/M09 A2989 RMK FG8 SLP158
Loading
Personal Weather Stations






























Interactive Weather Map New forecast layout! Learn more

10-Day Weather Forecast

Advertisements
Track Severe Weather on mobile